createdAt,value
2018-12-29T00:00:37.539Z,99367.09
2018-12-29T00:03:06.337Z,99369.77
2018-12-29T00:05:35.691Z,99374.06
2018-12-29T00:08:04.361Z,99367.44
2018-12-29T00:10:33.298Z,99368.28
2018-12-29T00:13:02.409Z,99365.79
2018-12-29T00:15:31.449Z,99371.50
2018-12-29T00:18:00.178Z,99372.78
2018-12-29T00:20:28.934Z,99377.48
2018-12-29T00:22:58.050Z,99382.81
2018-12-29T00:25:26.722Z,99384.63
2018-12-29T00:27:55.419Z,99384.33
2018-12-29T00:30:24.078Z,99391.20
2018-12-29T00:32:52.800Z,99401.31
2018-12-29T00:35:21.462Z,99400.25
2018-12-29T00:37:50.166Z,99394.79
2018-12-29T00:40:18.830Z,99397.46
2018-12-29T00:42:47.482Z,99396.78
2018-12-29T00:45:16.163Z,99406.33
2018-12-29T00:47:44.807Z,99410.51
2018-12-29T00:50:13.753Z,99405.45
2018-12-29T00:52:42.446Z,99411.67
2018-12-29T00:55:11.087Z,99419.52
2018-12-29T00:57:39.737Z,99419.57
2018-12-29T01:00:08.662Z,99428.87
2018-12-29T01:02:37.558Z,99429.11
2018-12-29T01:05:06.213Z,99427.43
2018-12-29T01:07:35.032Z,99428.83
2018-12-29T01:10:04.011Z,99433.94
2018-12-29T01:12:32.655Z,99441.44
2018-12-29T01:15:01.361Z,99448.25
2018-12-29T01:17:30.973Z,99444.59
2018-12-29T01:19:59.625Z,99452.73
2018-12-29T01:22:28.283Z,99452.20
2018-12-29T01:24:57.345Z,99447.44
2018-12-29T01:27:25.995Z,99454.65
2018-12-29T01:29:54.651Z,99465.88
2018-12-29T01:32:23.299Z,99452.78
2018-12-29T01:34:52.023Z,99449.64
2018-12-29T01:37:20.751Z,99446.67
2018-12-29T01:39:49.383Z,99440.80
2018-12-29T01:42:18.191Z,99438.13
2018-12-29T01:44:48.167Z,99442.86
2018-12-29T01:47:16.809Z,99425.47
2018-12-29T01:49:45.463Z,99434.34
2018-12-29T01:52:14.149Z,99428.52
2018-12-29T01:54:42.802Z,99426.90
2018-12-29T01:57:11.505Z,99430.34
2018-12-29T01:59:40.285Z,99421.31
2018-12-29T02:02:09.006Z,99434.87
2018-12-29T02:04:37.752Z,99426.55
2018-12-29T02:07:06.746Z,99423.58
2018-12-29T02:09:35.391Z,99431.09
2018-12-29T02:12:04.116Z,99427.66
2018-12-29T02:14:32.748Z,99433.25
2018-12-29T02:17:01.548Z,99445.17
2018-12-29T02:19:30.460Z,99445.11
2018-12-29T02:21:59.155Z,99443.77
2018-12-29T02:24:27.806Z,99445.11
2018-12-29T02:26:56.450Z,99457.52
2018-12-29T02:29:25.155Z,99457.00
2018-12-29T02:31:53.803Z,99454.96
2018-12-29T02:34:22.743Z,99455.08
2018-12-29T02:36:51.422Z,99461.41
2018-12-29T02:39:20.392Z,99473.50
2018-12-29T02:41:49.122Z,99465.58
2018-12-29T02:44:17.784Z,99468.25
2018-12-29T02:46:46.463Z,99461.11
2018-12-29T02:49:15.108Z,99462.16
2018-12-29T02:51:43.814Z,99474.42
2018-12-29T02:54:12.507Z,99484.11
2018-12-29T02:56:41.689Z,99473.31
2018-12-29T02:59:10.392Z,99468.37
2018-12-29T03:01:39.040Z,99464.77
2018-12-29T03:04:07.698Z,99458.90
2018-12-29T03:06:36.371Z,99460.41
2018-12-29T03:09:05.520Z,99450.63
2018-12-29T03:11:34.614Z,99456.56
2018-12-29T03:14:03.371Z,99450.41
2018-12-29T03:16:32.010Z,99453.44
2018-12-29T03:19:00.972Z,99446.53
2018-12-29T03:21:29.757Z,99444.77
2018-12-29T03:23:58.378Z,99448.77
2018-12-29T03:26:27.034Z,99443.42
2018-12-29T03:28:55.696Z,99447.50
2018-12-29T03:31:24.843Z,99446.28
2018-12-29T03:33:53.870Z,99452.09
2018-12-29T03:36:23.014Z,99447.09
2018-12-29T03:38:51.647Z,99437.68
2018-12-29T03:41:20.389Z,99432.86
2018-12-29T03:43:49.468Z,99415.02
2018-12-29T03:46:18.127Z,99420.42
2018-12-29T03:48:47.125Z,99409.84
2018-12-29T03:51:15.804Z,99423.20
2018-12-29T03:53:44.452Z,99409.61
2018-12-29T03:56:13.109Z,99415.66
2018-12-29T03:58:42.072Z,99431.28
2018-12-29T04:01:11.865Z,99427.68
2018-12-29T04:03:40.567Z,99426.92
2018-12-29T04:06:09.243Z,99419.56
2018-12-29T04:08:37.907Z,99420.91
2018-12-29T04:11:06.552Z,99425.23
2018-12-29T04:13:35.692Z,99429.24
2018-12-29T04:16:04.426Z,99426.57
2018-12-29T04:18:33.100Z,99422.23
2018-12-29T04:21:01.748Z,99421.41
2018-12-29T04:23:30.491Z,99418.84
2018-12-29T04:25:59.157Z,99414.89
2018-12-29T04:28:27.836Z,99401.17
2018-12-29T04:30:56.489Z,99401.06
2018-12-29T04:33:25.840Z,99417.05
2018-12-29T04:35:54.588Z,99407.70
2018-12-29T04:38:23.249Z,99412.40
2018-12-29T04:40:51.902Z,99412.17
2018-12-29T04:43:20.572Z,99402.52
2018-12-29T04:45:49.227Z,99402.69
2018-12-29T04:48:17.866Z,99414.66
2018-12-29T04:50:46.522Z,99426.81
2018-12-29T04:53:15.488Z,99422.39
2018-12-29T04:55:45.095Z,99421.59
2018-12-29T04:58:14.816Z,99427.17
2018-12-29T05:00:44.891Z,99429.67
2018-12-29T05:03:14.597Z,99442.45
2018-12-29T05:05:44.285Z,99441.93
2018-12-29T05:08:13.992Z,99441.70
2018-12-29T05:10:43.931Z,99433.86
2018-12-29T05:13:13.623Z,99431.36
2018-12-29T05:15:43.654Z,99435.48
2018-12-29T05:18:13.341Z,99432.75
2018-12-29T05:20:43.021Z,99442.23
2018-12-29T05:23:12.986Z,99445.42
2018-12-29T05:25:44.069Z,99437.92
2018-12-29T05:28:13.943Z,99437.92
2018-12-29T05:30:43.684Z,99447.15
2018-12-29T05:33:13.464Z,99451.86
2018-12-29T05:35:43.152Z,99452.98
2018-12-29T05:38:12.840Z,99443.66
2018-12-29T05:40:42.512Z,99459.30
2018-12-29T05:43:12.196Z,99475.23
2018-12-29T05:45:42.321Z,99474.44
2018-12-29T05:48:12.066Z,99464.83
2018-12-29T05:50:41.840Z,99467.22
2018-12-29T05:53:11.524Z,99474.70
2018-12-29T05:55:41.286Z,99460.60
2018-12-29T05:58:11.064Z,99469.09
2018-12-29T06:00:40.880Z,99459.73
2018-12-29T06:03:10.729Z,99462.29
2018-12-29T06:05:40.732Z,99463.62
2018-12-29T06:08:10.536Z,99451.18
2018-12-29T06:10:40.345Z,99454.20
2018-12-29T06:13:10.113Z,99455.42
2018-12-29T06:15:39.791Z,99444.09
2018-12-29T06:18:09.880Z,99457.69
2018-12-29T06:20:39.574Z,99461.52
2018-12-29T06:23:09.664Z,99461.58
2018-12-29T06:25:39.417Z,99465.72
2018-12-29T06:28:09.066Z,99459.09
2018-12-29T06:30:38.842Z,99465.83
2018-12-29T06:33:08.523Z,99468.80
2018-12-29T06:35:38.268Z,99473.16
2018-12-29T06:38:08.060Z,99479.59
2018-12-29T06:40:38.136Z,99476.16
2018-12-29T06:43:07.825Z,99481.81
2018-12-29T06:45:37.520Z,99482.44
2018-12-29T06:48:07.271Z,99483.78
2018-12-29T06:50:37.012Z,99480.33
2018-12-29T06:53:06.856Z,99472.60
2018-12-29T06:55:36.636Z,99476.97
2018-12-29T06:58:06.638Z,99476.55
2018-12-29T07:00:36.361Z,99472.83
2018-12-29T07:03:06.112Z,99487.30
2018-12-29T07:05:35.870Z,99497.48
2018-12-29T07:08:05.957Z,99505.34
2018-12-29T07:10:35.746Z,99508.53
2018-12-29T07:13:05.527Z,99498.13
2018-12-29T07:15:35.690Z,99508.23
2018-12-29T07:18:05.395Z,99499.56
2018-12-29T07:20:35.098Z,99514.95
2018-12-29T07:23:05.141Z,99521.17
2018-12-29T07:25:34.891Z,99511.53
2018-12-29T07:28:05.059Z,99521.70
2018-12-29T07:30:34.872Z,99521.31
2018-12-29T07:33:04.543Z,99519.68
2018-12-29T07:35:34.262Z,99518.34
2018-12-29T07:38:04.365Z,99523.23
2018-12-29T07:40:34.124Z,99523.92
2018-12-29T07:43:03.802Z,99533.70
2018-12-29T07:45:33.527Z,99537.58
2018-12-29T07:48:03.312Z,99543.28
2018-12-29T07:50:33.341Z,99545.20
2018-12-29T07:53:03.045Z,99551.53
2018-12-29T07:55:32.870Z,99558.58
2018-12-29T07:58:02.540Z,99557.23
2018-12-29T08:00:32.229Z,99562.66
2018-12-29T08:03:02.013Z,99554.05
2018-12-29T08:05:32.456Z,99553.09
2018-12-29T08:08:02.335Z,99559.09
2018-12-29T08:10:32.001Z,99562.74
2018-12-29T08:13:01.864Z,99568.61
2018-12-29T08:15:31.516Z,99567.80
2018-12-29T08:18:01.449Z,99568.75
2018-12-29T08:20:31.116Z,99561.64
2018-12-29T08:23:00.797Z,99561.02
2018-12-29T08:25:30.800Z,99564.21
2018-12-29T08:28:00.476Z,99565.95
2018-12-29T08:30:30.219Z,99559.44
2018-12-29T08:32:59.892Z,99563.03
2018-12-29T08:35:29.602Z,99563.85
2018-12-29T08:37:59.272Z,99567.73
2018-12-29T08:40:29.020Z,99567.18
2018-12-29T08:42:58.785Z,99576.88
2018-12-29T08:45:28.817Z,99575.95
2018-12-29T08:47:58.568Z,99584.27
2018-12-29T08:50:28.327Z,99572.46
2018-12-29T08:52:58.647Z,99571.55
2018-12-29T08:55:29.942Z,99568.05
2018-12-29T08:57:59.993Z,99569.16
2018-12-29T09:00:29.957Z,99572.66
2018-12-29T09:02:59.632Z,99571.22
2018-12-29T09:05:29.402Z,99566.27
2018-12-29T09:07:59.079Z,99563.99
2018-12-29T09:10:28.763Z,99570.00
2018-12-29T09:12:58.442Z,99574.31
2018-12-29T09:15:28.133Z,99568.09
2018-12-29T09:17:57.811Z,99582.16
2018-12-29T09:20:27.567Z,99577.61
2018-12-29T09:22:57.295Z,99577.00
2018-12-29T09:25:27.120Z,99573.97
2018-12-29T09:27:57.393Z,99582.30
2018-12-29T09:30:27.138Z,99586.66
2018-12-29T09:32:56.889Z,99573.27
2018-12-29T09:35:26.809Z,99578.32
2018-12-29T09:37:56.648Z,99570.34
2018-12-29T09:40:27.483Z,99575.47
2018-12-29T09:42:57.206Z,99576.92
2018-12-29T09:45:26.892Z,99561.52
2018-12-29T09:47:56.560Z,99568.25
2018-12-29T09:50:26.373Z,99565.17
2018-12-29T09:52:56.302Z,99580.23
2018-12-29T09:55:26.960Z,99585.25
2018-12-29T09:57:56.727Z,99585.25
2018-12-29T10:00:26.408Z,99583.00
2018-12-29T10:02:56.088Z,99581.06
2018-12-29T10:05:25.932Z,99585.27
2018-12-29T10:07:55.755Z,99583.20
2018-12-29T10:10:25.429Z,99581.72
2018-12-29T10:12:55.263Z,99581.77
2018-12-29T10:15:25.393Z,99579.44
2018-12-29T10:17:55.049Z,99582.69
2018-12-29T10:20:24.982Z,99582.01
2018-12-29T10:22:54.757Z,99583.35
2018-12-29T10:25:24.537Z,99582.09
2018-12-29T10:27:54.467Z,99574.92
2018-12-29T10:30:24.239Z,99576.05
2018-12-29T10:32:54.014Z,99573.42
2018-12-29T10:35:23.669Z,99567.64
2018-12-29T10:37:53.401Z,99570.38
2018-12-29T10:40:23.322Z,99575.73
2018-12-29T10:42:52.982Z,99581.56
2018-12-29T10:45:23.874Z,99586.06
2018-12-29T10:47:53.533Z,99583.62
2018-12-29T10:50:23.346Z,99582.56
2018-12-29T10:52:53.194Z,99576.23
2018-12-29T10:55:22.919Z,99577.34
2018-12-29T10:57:53.279Z,99574.95
2018-12-29T11:00:24.046Z,99564.30
2018-12-29T11:02:53.930Z,99565.54
2018-12-29T11:05:24.857Z,99562.28
2018-12-29T11:07:54.757Z,99558.65
2018-12-29T11:10:24.529Z,99565.70
2018-12-29T11:12:54.502Z,99556.92
2018-12-29T11:15:24.617Z,99563.76
2018-12-29T11:17:54.373Z,99561.60
2018-12-29T11:20:24.511Z,99558.63
2018-12-29T11:22:54.574Z,99563.23
2018-12-29T11:25:24.362Z,99562.28
2018-12-29T11:27:55.422Z,99562.62
2018-12-29T11:30:25.397Z,99562.15
2018-12-29T11:32:55.309Z,99559.94
2018-12-29T11:35:28.831Z,99557.55
2018-12-29T11:37:56.853Z,99558.89
2018-12-29T11:40:26.703Z,99554.15
2018-12-29T11:42:56.449Z,99555.78
2018-12-29T11:45:26.659Z,99555.92
2018-12-29T11:47:56.480Z,99562.91
2018-12-29T11:50:26.303Z,99555.49
2018-12-29T11:52:56.126Z,99552.34
2018-12-29T11:55:26.019Z,99549.17
2018-12-29T11:57:55.766Z,99552.14
2018-12-29T12:00:25.498Z,99559.31
2018-12-29T12:02:55.380Z,99551.37
2018-12-29T12:05:25.239Z,99549.70
2018-12-29T12:07:55.293Z,99547.75
2018-12-29T12:10:25.030Z,99542.47
2018-12-29T12:12:55.088Z,99546.92
2018-12-29T12:15:25.146Z,99539.55
2018-12-29T12:17:57.479Z,99538.98
2018-12-29T12:20:26.419Z,99536.20
2018-12-29T12:22:56.113Z,99542.80
2018-12-29T12:25:25.871Z,99538.73
2018-12-29T12:27:56.049Z,99539.84
2018-12-29T12:30:26.001Z,99534.14
2018-12-29T12:32:55.903Z,99535.91
2018-12-29T12:35:25.703Z,99532.75
2018-12-29T12:37:55.425Z,99529.55
2018-12-29T12:40:25.178Z,99531.17
2018-12-29T12:42:55.452Z,99530.91
2018-12-29T12:45:25.204Z,99529.84
2018-12-29T12:47:55.126Z,99532.30
2018-12-29T12:50:24.862Z,99526.02
2018-12-29T12:52:54.540Z,99531.72
2018-12-29T12:55:24.272Z,99524.09
2018-12-29T12:57:54.163Z,99523.30
2018-12-29T13:00:24.306Z,99526.53
2018-12-29T13:02:54.132Z,99523.70
2018-12-29T13:05:24.753Z,99531.67
2018-12-29T13:07:54.463Z,99529.41
2018-12-29T13:10:24.243Z,99529.41
2018-12-29T13:12:53.991Z,99510.98
2018-12-29T13:15:23.666Z,99518.27
2018-12-29T13:17:53.325Z,99518.98
2018-12-29T13:20:22.996Z,99510.37
2018-12-29T13:22:53.113Z,99512.17
2018-12-29T13:25:22.796Z,99514.22
2018-12-29T13:27:53.079Z,99507.14
2018-12-29T13:30:23.068Z,99507.22
2018-12-29T13:32:53.086Z,99514.17
2018-12-29T13:35:22.819Z,99511.00
2018-12-29T13:37:52.500Z,99510.84
2018-12-29T13:40:22.360Z,99511.00
2018-12-29T13:42:52.052Z,99504.22
2018-12-29T13:45:22.027Z,99503.61
2018-12-29T13:47:51.851Z,99499.70
2018-12-29T13:50:21.496Z,99498.61
2018-12-29T13:52:51.221Z,99493.33
2018-12-29T13:55:21.787Z,99487.89
2018-12-29T13:57:51.858Z,99483.20
2018-12-29T14:00:21.597Z,99487.09
2018-12-29T14:02:51.931Z,99494.37
2018-12-29T14:05:21.943Z,99505.97
2018-12-29T14:07:51.693Z,99502.31
2018-12-29T14:10:21.659Z,99511.53
2018-12-29T14:12:51.396Z,99508.61
2018-12-29T14:15:21.276Z,99507.02
2018-12-29T14:17:51.248Z,99495.39
2018-12-29T14:20:21.214Z,99493.33
2018-12-29T14:22:51.962Z,99499.47
2018-12-29T14:25:21.818Z,99494.75
2018-12-29T14:27:51.574Z,99487.91
2018-12-29T14:30:21.284Z,99500.12
2018-12-29T14:32:51.156Z,99487.14
2018-12-29T14:35:20.884Z,99488.20
2018-12-29T14:37:50.646Z,99489.63
2018-12-29T14:40:20.402Z,99483.78
2018-12-29T14:42:50.246Z,99481.09
2018-12-29T14:45:20.040Z,99478.69
2018-12-29T14:47:49.792Z,99480.15
2018-12-29T14:50:19.902Z,99476.02
2018-12-29T14:52:49.565Z,99488.58
2018-12-29T14:55:19.247Z,99475.84
2018-12-29T14:57:49.290Z,99470.72
2018-12-29T15:00:19.474Z,99474.27
2018-12-29T15:02:49.811Z,99467.31
2018-12-29T15:05:19.662Z,99455.52
2018-12-29T15:07:49.315Z,99459.51
2018-12-29T15:10:19.398Z,99464.71
2018-12-29T15:12:49.195Z,99472.99
2018-12-29T15:15:19.003Z,99467.83
2018-12-29T15:17:49.089Z,99474.83
2018-12-29T15:20:20.850Z,99480.39
2018-12-29T15:22:50.603Z,99477.25
2018-12-29T15:25:21.023Z,99480.11
2018-12-29T15:27:51.653Z,99477.42
2018-12-29T15:30:21.400Z,99478.68
2018-12-29T15:32:51.145Z,99483.75
2018-12-29T15:35:20.811Z,99481.56
2018-12-29T15:37:50.596Z,99476.97
2018-12-29T15:40:20.333Z,99468.06
2018-12-29T15:42:50.207Z,99467.55
2018-12-29T15:45:19.876Z,99470.27
2018-12-29T15:47:49.547Z,99472.98
2018-12-29T15:50:19.641Z,99477.23
2018-12-29T15:52:49.482Z,99472.63
2018-12-29T15:55:19.238Z,99468.99
2018-12-29T15:57:49.129Z,99474.33
2018-12-29T16:00:18.823Z,99474.25
2018-12-29T16:02:48.541Z,99466.73
2018-12-29T16:05:18.315Z,99469.98
2018-12-29T16:07:48.281Z,99470.02
2018-12-29T16:10:18.447Z,99469.52
2018-12-29T16:12:48.101Z,99475.39
2018-12-29T16:15:18.188Z,99475.22
2018-12-29T16:17:47.853Z,99470.83
2018-12-29T16:20:17.585Z,99467.98
2018-12-29T16:22:47.708Z,99473.73
2018-12-29T16:25:17.462Z,99465.52
2018-12-29T16:27:47.129Z,99457.83
2018-12-29T16:30:17.177Z,99452.31
2018-12-29T16:32:47.261Z,99451.58
2018-12-29T16:35:17.005Z,99442.77
2018-12-29T16:37:48.187Z,99437.48
2018-12-29T16:40:17.945Z,99436.78
2018-12-29T16:42:48.057Z,99436.39
2018-12-29T16:45:18.087Z,99426.74
2018-12-29T16:47:47.849Z,99421.52
2018-12-29T16:50:17.734Z,99426.67
2018-12-29T16:52:47.406Z,99430.20
2018-12-29T16:55:17.190Z,99421.94
2018-12-29T16:57:46.935Z,99417.74
2018-12-29T17:00:16.591Z,99410.75
2018-12-29T17:02:46.942Z,99399.59
2018-12-29T17:05:17.338Z,99394.00
2018-12-29T17:07:47.027Z,99391.52
2018-12-29T17:10:16.686Z,99378.89
2018-12-29T17:12:46.411Z,99388.54
2018-12-29T17:15:16.354Z,99389.63
2018-12-29T17:17:46.124Z,99389.41
2018-12-29T17:20:15.800Z,99388.59
2018-12-29T17:22:45.466Z,99393.92
2018-12-29T17:25:15.572Z,99389.95
2018-12-29T17:27:45.346Z,99383.80
2018-12-29T17:30:15.084Z,99373.10
2018-12-29T17:32:45.140Z,99370.24
2018-12-29T17:35:14.877Z,99369.67
2018-12-29T17:37:44.631Z,99391.34
2018-12-29T17:40:14.382Z,99396.88
2018-12-29T17:42:44.061Z,99390.09
2018-12-29T17:45:14.099Z,99391.23
2018-12-29T17:47:43.795Z,99376.16
2018-12-29T17:50:13.666Z,99374.81
2018-12-29T17:52:43.397Z,99378.02
2018-12-29T17:55:13.542Z,99368.84
2018-12-29T17:57:43.489Z,99376.64
2018-12-29T18:00:14.326Z,99370.92
2018-12-29T18:02:44.016Z,99374.04
2018-12-29T18:05:13.791Z,99372.86
2018-12-29T18:07:43.563Z,99367.81
2018-12-29T18:10:13.754Z,99373.80
2018-12-29T18:12:43.487Z,99376.73
2018-12-29T18:15:13.210Z,99385.07
2018-12-29T18:17:43.237Z,99359.13
2018-12-29T18:20:12.974Z,99360.32
2018-12-29T18:22:42.744Z,99349.25
2018-12-29T18:25:12.484Z,99324.54
2018-12-29T18:27:42.524Z,99332.09
2018-12-29T18:30:12.194Z,99314.48
2018-12-29T18:32:42.292Z,99314.58
2018-12-29T18:35:12.022Z,99308.77
2018-12-29T18:37:41.769Z,99318.98
2018-12-29T18:40:11.605Z,99312.21
2018-12-29T18:42:41.709Z,99309.02
2018-12-29T18:45:11.450Z,99305.63
2018-12-29T18:47:41.638Z,99286.96
2018-12-29T18:50:11.456Z,99283.84
2018-12-29T18:52:41.432Z,99267.98
2018-12-29T18:55:11.478Z,99268.95
2018-12-29T18:57:41.246Z,99267.27
2018-12-29T19:00:11.021Z,99267.95
2018-12-29T19:02:40.799Z,99260.90
2018-12-29T19:05:10.881Z,99256.01
2018-12-29T19:07:40.682Z,99263.97
2018-12-29T19:10:10.644Z,99251.70
2018-12-29T19:12:40.571Z,99237.80
2018-12-29T19:15:10.319Z,99243.34
2018-12-29T19:17:41.218Z,99244.27
2018-12-29T19:20:11.233Z,99220.33
2018-12-29T19:22:41.201Z,99217.45
2018-12-29T19:25:11.032Z,99215.74
2018-12-29T19:27:41.343Z,99214.42
2018-12-29T19:30:11.547Z,99208.25
2018-12-29T19:32:41.386Z,99215.34
2018-12-29T19:35:11.130Z,99200.34
2018-12-29T19:37:40.871Z,99164.34
2018-12-29T19:40:10.678Z,99133.39
2018-12-29T19:42:40.710Z,99153.46
2018-12-29T19:45:10.522Z,99170.05
2018-12-29T19:47:40.224Z,99183.55
2018-12-29T19:50:10.382Z,99187.34
2018-12-29T19:52:40.112Z,99205.96
2018-12-29T19:55:09.795Z,99221.36
2018-12-29T19:57:39.720Z,99240.69
2018-12-29T20:00:11.011Z,99234.39
2018-12-29T20:02:41.171Z,99249.10
2018-12-29T20:05:11.306Z,99246.28
2018-12-29T20:07:41.050Z,99261.33
2018-12-29T20:10:10.857Z,99251.33
2018-12-29T20:12:40.613Z,99233.80
2018-12-29T20:15:10.291Z,99241.27
2018-12-29T20:17:40.447Z,99241.61
2018-12-29T20:20:10.593Z,99232.86
2018-12-29T20:22:40.756Z,99232.44
2018-12-29T20:25:10.802Z,99237.88
2018-12-29T20:27:40.508Z,99232.48
2018-12-29T20:30:10.611Z,99224.77
2018-12-29T20:32:40.292Z,99221.25
2018-12-29T20:35:10.083Z,99222.06
2018-12-29T20:37:39.749Z,99236.16
2018-12-29T20:40:09.499Z,99234.02
2018-12-29T20:42:39.284Z,99237.70
2018-12-29T20:45:10.054Z,99232.33
2018-12-29T20:47:39.770Z,99226.84
2018-12-29T20:50:10.147Z,99206.25
2018-12-29T20:52:41.314Z,99203.29
2018-12-29T20:55:11.082Z,99195.58
2018-12-29T20:57:40.764Z,99186.13
2018-12-29T21:00:11.072Z,99166.86
2018-12-29T21:02:40.779Z,99150.48
2018-12-29T21:05:10.941Z,99133.30
2018-12-29T21:07:40.658Z,99131.93
2018-12-29T21:10:10.604Z,99121.90
2018-12-29T21:12:40.298Z,99121.90
2018-12-29T21:15:10.185Z,99102.95
2018-12-29T21:17:40.810Z,99088.73
2018-12-29T21:20:17.372Z,99071.55
2018-12-29T21:22:42.609Z,99062.39
2018-12-29T21:25:12.403Z,99067.48
2018-12-29T21:27:42.513Z,99058.59
2018-12-29T21:30:13.330Z,99066.92
2018-12-29T21:32:43.121Z,99078.73
2018-12-29T21:35:12.904Z,99054.12
2018-12-29T21:37:42.948Z,99035.59
2018-12-29T21:40:12.598Z,99039.85
2018-12-29T21:42:42.660Z,99038.25
2018-12-29T21:45:13.408Z,99034.25
2018-12-29T21:47:43.124Z,99050.25
2018-12-29T21:50:12.931Z,99034.84
2018-12-29T21:52:42.590Z,99035.52
2018-12-29T21:55:12.620Z,99018.06
2018-12-29T21:57:42.423Z,99009.84
2018-12-29T22:00:12.608Z,99011.73
2018-12-29T22:02:42.366Z,99003.41
2018-12-29T22:05:12.045Z,99009.56
2018-12-29T22:07:41.997Z,99007.69
2018-12-29T22:10:12.071Z,99001.72
2018-12-29T22:12:41.998Z,99001.00
2018-12-29T22:15:12.723Z,99006.88
2018-12-29T22:17:42.750Z,99010.34
2018-12-29T22:20:12.816Z,99006.77
2018-12-29T22:22:42.662Z,99000.38
2018-12-29T22:25:12.813Z,98997.63
2018-12-29T22:27:42.661Z,99004.02
2018-12-29T22:30:12.608Z,98999.20
2018-12-29T22:32:42.621Z,99002.12
2018-12-29T22:35:12.396Z,98998.35
2018-12-29T22:37:42.331Z,98998.12
2018-12-29T22:40:12.075Z,98986.02
2018-12-29T22:42:42.207Z,98987.36
2018-12-29T22:45:12.089Z,98978.11
2018-12-29T22:47:41.912Z,98981.89
2018-12-29T22:50:11.747Z,98971.23
2018-12-29T22:52:41.661Z,98960.50
2018-12-29T22:55:11.544Z,98960.18
2018-12-29T22:57:41.611Z,98953.80
2018-12-29T23:00:21.270Z,98947.81
2018-12-29T23:02:53.077Z,98946.77
2018-12-29T23:05:23.057Z,98940.56
2018-12-29T23:07:52.879Z,98944.23
2018-12-29T23:10:22.748Z,98938.06
2018-12-29T23:12:53.020Z,98936.97
2018-12-29T23:15:22.734Z,98926.27
2018-12-29T23:17:52.534Z,98922.85
2018-12-29T23:20:22.698Z,98909.27
2018-12-29T23:22:52.552Z,98914.04
2018-12-29T23:25:22.412Z,98905.42
2018-12-29T23:27:52.098Z,98900.55
2018-12-29T23:30:22.309Z,98903.64
2018-12-29T23:32:52.538Z,98908.16
2018-12-29T23:35:22.363Z,98901.13
2018-12-29T23:37:52.096Z,98903.83
2018-12-29T23:40:21.976Z,98900.38
2018-12-29T23:42:51.762Z,98895.78
2018-12-29T23:45:21.625Z,98907.39
2018-12-29T23:47:51.317Z,98898.03
2018-12-29T23:50:20.981Z,98902.03
2018-12-29T23:52:51.092Z,98901.15
2018-12-29T23:55:21.115Z,98894.30
2018-12-29T23:57:50.819Z,98890.26
